RPV87Y EDDE-EDDH
Flight info
| Callsign | RPV87Y |
|---|---|
| Flight time | 0h 43m |
| Altitude | 34000 |
| Route | LASTO1D LASTO M852 HLZ Z990 DIRBO DCT RIDNI Z870 GESTO/N0462F330 DCT NOLGO NOLGO3P |
| Aircraft | E170/M-SDE3GILORVW/S |
Departure
| Time | 2026-05-04 03:55 |
|---|---|
| Airport | Erfurt-Weimar Airport (EDDE) |
Arrival
| Time | 2026-05-04 04:38 |
|---|---|
| Airport | Hamburg Helmut Schmidt Airport (EDDH) |
| Time | Latitude | Longitude | Altitude | Speed | Heading |
|---|---|---|---|---|---|
| 2026-05-04 03:47 | 50.97586 | 10.96305 | 1041 ft | 0 kts | 277° |
| 2026-05-04 03:49 | 50.97586 | 10.96304 | 1041 ft | 0 kts | 277° |
| 2026-05-04 03:49 | 50.97587 | 10.96294 | 1041 ft | 1 kts | 277° |
| 2026-05-04 03:49 | 50.97588 | 10.96274 | 1041 ft | 2 kts | 277° |
| 2026-05-04 03:49 | 50.97596 | 10.96242 | 1041 ft | 4 kts | 319° |
| 2026-05-04 03:50 | 50.97635 | 10.96241 | 1041 ft | 7 kts | 7° |
| 2026-05-04 03:50 | 50.97686 | 10.96251 | 1041 ft | 7 kts | 6° |
| 2026-05-04 03:50 | 50.97724 | 10.96306 | 1041 ft | 8 kts | 79° |
| 2026-05-04 03:50 | 50.97721 | 10.96403 | 1041 ft | 9 kts | 99° |
| 2026-05-04 03:51 | 50.97711 | 10.96508 | 1041 ft | 10 kts | 97° |
| 2026-05-04 03:51 | 50.97702 | 10.96621 | 1041 ft | 10 kts | 97° |
| 2026-05-04 03:51 | 50.97692 | 10.96745 | 1041 ft | 11 kts | 97° |
| 2026-05-04 03:51 | 50.97680 | 10.96879 | 1041 ft | 12 kts | 98° |
| 2026-05-04 03:52 | 50.97679 | 10.97024 | 1041 ft | 13 kts | 81° |
| 2026-05-04 03:52 | 50.97693 | 10.97175 | 1041 ft | 14 kts | 83° |
| 2026-05-04 03:52 | 50.97705 | 10.97336 | 1041 ft | 15 kts | 81° |
| 2026-05-04 03:52 | 50.97716 | 10.97425 | 1041 ft | 0 kts | 68° |
| 2026-05-04 03:53 | 50.97724 | 10.97446 | 1041 ft | 4 kts | 53° |
| 2026-05-04 03:53 | 50.97754 | 10.97505 | 1041 ft | 9 kts | 50° |
| 2026-05-04 03:53 | 50.97798 | 10.97587 | 1041 ft | 9 kts | 32° |
| 2026-05-04 03:53 | 50.97843 | 10.97530 | 1041 ft | 10 kts | 280° |
| 2026-05-04 03:54 | 50.97855 | 10.97382 | 1041 ft | 24 kts | 276° |
| 2026-05-04 03:54 | 50.97910 | 10.96707 | 1041 ft | 93 kts | 276° |
| 2026-05-04 03:54 | 50.98013 | 10.95400 | 1042 ft | 145 kts | 276° |
| 2026-05-04 03:54 | 50.98146 | 10.93743 | 1447 ft | 150 kts | 275° |
| 2026-05-04 03:55 | 50.98309 | 10.92037 | 2018 ft | 162 kts | 276° |
| 2026-05-04 03:55 | 50.98455 | 10.90259 | 2656 ft | 173 kts | 276° |
| 2026-05-04 03:55 | 50.98613 | 10.88254 | 3093 ft | 195 kts | 277° |
| 2026-05-04 03:55 | 50.98785 | 10.86026 | 3715 ft | 209 kts | 276° |
| 2026-05-04 03:56 | 50.98963 | 10.83684 | 4308 ft | 225 kts | 276° |
| 2026-05-04 03:56 | 50.99252 | 10.81110 | 4784 ft | 247 kts | 293° |
| 2026-05-04 03:56 | 51.00405 | 10.79046 | 5459 ft | 264 kts | 329° |
| 2026-05-04 03:56 | 51.02186 | 10.78272 | 6316 ft | 273 kts | 348° |
| 2026-05-04 03:57 | 51.04042 | 10.77812 | 7197 ft | 274 kts | 347° |
| 2026-05-04 03:57 | 51.05955 | 10.77989 | 7989 ft | 286 kts | 18° |
| 2026-05-04 03:57 | 51.07587 | 10.79849 | 8732 ft | 296 kts | 52° |
| 2026-05-04 03:57 | 51.08606 | 10.82726 | 9470 ft | 301 kts | 62° |
| 2026-05-04 03:58 | 51.10582 | 10.88707 | 10853 ft | 311 kts | 62° |
| 2026-05-04 03:58 | 51.11368 | 10.91970 | 11329 ft | 322 kts | 82° |
| 2026-05-04 03:58 | 51.11674 | 10.95550 | 11776 ft | 333 kts | 84° |
| 2026-05-04 03:59 | 51.11968 | 10.99235 | 12271 ft | 343 kts | 84° |
| 2026-05-04 03:59 | 51.12565 | 11.02940 | 12817 ft | 352 kts | 62° |
| 2026-05-04 03:59 | 51.14122 | 11.05890 | 13405 ft | 354 kts | 34° |
| 2026-05-04 03:59 | 51.16373 | 11.07433 | 14038 ft | 350 kts | 5° |
| 2026-05-04 04:00 | 51.18734 | 11.07206 | 14643 ft | 342 kts | 338° |
| 2026-05-04 04:00 | 51.20869 | 11.05611 | 15298 ft | 340 kts | 329° |
| 2026-05-04 04:00 | 51.23006 | 11.03959 | 15912 ft | 343 kts | 330° |
| 2026-05-04 04:00 | 51.25170 | 11.02364 | 16487 ft | 347 kts | 331° |
| 2026-05-04 04:01 | 51.27361 | 11.00778 | 17050 ft | 351 kts | 332° |
| 2026-05-04 04:01 | 51.29598 | 10.99169 | 17604 ft | 355 kts | 332° |
| 2026-05-04 04:01 | 51.31853 | 10.97549 | 18161 ft | 358 kts | 332° |
| 2026-05-04 04:01 | 51.34156 | 10.95896 | 18735 ft | 361 kts | 332° |
| 2026-05-04 04:02 | 51.36442 | 10.94253 | 19317 ft | 363 kts | 332° |
| 2026-05-04 04:02 | 51.38888 | 10.93111 | 19866 ft | 373 kts | 349° |
| 2026-05-04 04:02 | 51.41481 | 10.92761 | 20418 ft | 377 kts | 352° |
| 2026-05-04 04:02 | 51.44096 | 10.92444 | 20953 ft | 379 kts | 352° |
| 2026-05-04 04:03 | 51.46737 | 10.92129 | 21486 ft | 382 kts | 352° |
| 2026-05-04 04:03 | 51.49381 | 10.91814 | 22004 ft | 384 kts | 352° |
| 2026-05-04 04:03 | 51.52044 | 10.91497 | 22518 ft | 387 kts | 352° |
| 2026-05-04 04:03 | 51.54702 | 10.91181 | 22999 ft | 389 kts | 352° |
| 2026-05-04 04:04 | 51.57432 | 10.90856 | 23498 ft | 392 kts | 352° |
| 2026-05-04 04:04 | 51.60122 | 10.90535 | 23984 ft | 394 kts | 351° |
| 2026-05-04 04:04 | 51.62852 | 10.90209 | 24466 ft | 397 kts | 351° |
| 2026-05-04 04:04 | 51.65629 | 10.89876 | 24911 ft | 400 kts | 351° |
| 2026-05-04 04:05 | 51.68415 | 10.89493 | 25372 ft | 402 kts | 349° |
| 2026-05-04 04:05 | 51.71160 | 10.89026 | 25802 ft | 405 kts | 349° |
| 2026-05-04 04:05 | 51.73963 | 10.88550 | 26223 ft | 408 kts | 349° |
| 2026-05-04 04:05 | 51.76825 | 10.88064 | 26666 ft | 411 kts | 349° |
| 2026-05-04 04:06 | 51.79664 | 10.87581 | 27097 ft | 414 kts | 349° |
| 2026-05-04 04:06 | 51.82487 | 10.87101 | 27510 ft | 416 kts | 349° |
| 2026-05-04 04:06 | 51.85378 | 10.86658 | 27923 ft | 420 kts | 350° |
| 2026-05-04 04:06 | 51.88279 | 10.86255 | 28315 ft | 422 kts | 350° |
| 2026-05-04 04:07 | 51.91215 | 10.85843 | 28734 ft | 425 kts | 350° |
| 2026-05-04 04:07 | 51.94159 | 10.85428 | 29087 ft | 428 kts | 350° |
| 2026-05-04 04:07 | 51.97152 | 10.85005 | 29477 ft | 431 kts | 350° |
| 2026-05-04 04:07 | 52.00124 | 10.84585 | 29831 ft | 434 kts | 350° |
| 2026-05-04 04:08 | 52.03119 | 10.84160 | 30199 ft | 437 kts | 350° |
| 2026-05-04 04:08 | 52.06142 | 10.83732 | 30585 ft | 439 kts | 350° |
| 2026-05-04 04:08 | 52.09176 | 10.83301 | 30944 ft | 441 kts | 350° |
| 2026-05-04 04:08 | 52.12245 | 10.82864 | 31286 ft | 443 kts | 350° |
| 2026-05-04 04:09 | 52.15311 | 10.82438 | 31595 ft | 446 kts | 350° |
| 2026-05-04 04:09 | 52.18397 | 10.82013 | 31878 ft | 449 kts | 350° |
| 2026-05-04 04:09 | 52.21513 | 10.81582 | 32228 ft | 451 kts | 350° |
| 2026-05-04 04:09 | 52.24616 | 10.81153 | 32639 ft | 450 kts | 350° |
| 2026-05-04 04:10 | 52.27745 | 10.80719 | 33083 ft | 449 kts | 350° |
| 2026-05-04 04:10 | 52.30838 | 10.80289 | 33469 ft | 449 kts | 350° |
| 2026-05-04 04:10 | 52.33933 | 10.79860 | 33804 ft | 449 kts | 350° |
| 2026-05-04 04:10 | 52.37004 | 10.79610 | 33902 ft | 449 kts | 357° |
| 2026-05-04 04:11 | 52.43382 | 10.80248 | 33939 ft | 467 kts | 359° |
| 2026-05-04 04:11 | 52.49947 | 10.80932 | 33928 ft | 481 kts | 359° |
| 2026-05-04 04:12 | 52.56667 | 10.81632 | 33925 ft | 484 kts | 359° |
| 2026-05-04 04:12 | 52.63369 | 10.82333 | 33925 ft | 481 kts | 359° |
| 2026-05-04 04:13 | 52.70067 | 10.83034 | 33929 ft | 482 kts | 359° |
| 2026-05-04 04:13 | 52.76732 | 10.83734 | 33914 ft | 483 kts | 359° |
| 2026-05-04 04:14 | 52.83267 | 10.84426 | 33547 ft | 463 kts | 359° |
| 2026-05-04 04:14 | 52.86543 | 10.84768 | 33086 ft | 479 kts | 358° |
| 2026-05-04 04:14 | 52.89929 | 10.85126 | 33032 ft | 487 kts | 359° |
| 2026-05-04 04:15 | 52.96623 | 10.84441 | 33065 ft | 485 kts | 341° |
| 2026-05-04 04:15 | 52.99814 | 10.82874 | 32920 ft | 468 kts | 332° |
| 2026-05-04 04:15 | 53.02668 | 10.80605 | 32848 ft | 448 kts | 323° |
| 2026-05-04 04:16 | 53.05164 | 10.77707 | 32736 ft | 431 kts | 313° |
| 2026-05-04 04:16 | 53.07198 | 10.74377 | 32575 ft | 395 kts | 304° |
| 2026-05-04 04:16 | 53.08740 | 10.70707 | 32331 ft | 384 kts | 293° |
| 2026-05-04 04:16 | 53.09810 | 10.66743 | 31736 ft | 378 kts | 284° |
| 2026-05-04 04:17 | 53.10431 | 10.62606 | 30383 ft | 369 kts | 275° |
| 2026-05-04 04:17 | 53.10741 | 10.58457 | 28952 ft | 359 kts | 274° |
| 2026-05-04 04:17 | 53.11035 | 10.54409 | 27567 ft | 351 kts | 274° |
| 2026-05-04 04:17 | 53.11317 | 10.50505 | 26244 ft | 343 kts | 274° |
| 2026-05-04 04:18 | 53.11597 | 10.46613 | 24946 ft | 336 kts | 273° |
| 2026-05-04 04:18 | 53.11868 | 10.42848 | 23700 ft | 328 kts | 272° |
| 2026-05-04 04:18 | 53.12129 | 10.39190 | 22519 ft | 322 kts | 273° |
| 2026-05-04 04:18 | 53.12387 | 10.35561 | 21371 ft | 316 kts | 273° |
| 2026-05-04 04:19 | 53.12640 | 10.32001 | 20237 ft | 310 kts | 272° |
| 2026-05-04 04:19 | 53.12887 | 10.28505 | 19168 ft | 305 kts | 272° |
| 2026-05-04 04:19 | 53.13132 | 10.25030 | 18100 ft | 300 kts | 273° |
| 2026-05-04 04:19 | 53.13368 | 10.21671 | 17107 ft | 296 kts | 274° |
| 2026-05-04 04:20 | 53.13868 | 10.18384 | 16168 ft | 298 kts | 288° |
| 2026-05-04 04:20 | 53.14791 | 10.15279 | 15427 ft | 304 kts | 295° |
| 2026-05-04 04:20 | 53.15904 | 10.12299 | 14704 ft | 306 kts | 299° |
| 2026-05-04 04:20 | 53.17513 | 10.09679 | 14591 ft | 343 kts | 326° |
| 2026-05-04 04:21 | 53.19837 | 10.08447 | 14550 ft | 368 kts | 351° |
| 2026-05-04 04:21 | 53.22403 | 10.08987 | 14539 ft | 378 kts | 12° |
| 2026-05-04 04:21 | 53.24952 | 10.09988 | 14513 ft | 376 kts | 7° |
| 2026-05-04 04:21 | 53.27539 | 10.10757 | 14506 ft | 375 kts | 5° |
| 2026-05-04 04:22 | 53.30107 | 10.11436 | 14501 ft | 375 kts | 5° |
| 2026-05-04 04:22 | 53.32652 | 10.12082 | 14504 ft | 375 kts | 4° |
| 2026-05-04 04:22 | 53.35260 | 10.12734 | 14490 ft | 376 kts | 4° |
| 2026-05-04 04:22 | 53.37815 | 10.13370 | 14489 ft | 375 kts | 4° |
| 2026-05-04 04:23 | 53.40410 | 10.13711 | 14481 ft | 370 kts | 352° |
| 2026-05-04 04:23 | 53.42970 | 10.13417 | 14484 ft | 369 kts | 351° |
| 2026-05-04 04:23 | 53.45502 | 10.13191 | 14473 ft | 371 kts | 360° |
| 2026-05-04 04:23 | 53.48018 | 10.14405 | 14511 ft | 381 kts | 26° |
| 2026-05-04 04:24 | 53.50093 | 10.17170 | 14536 ft | 387 kts | 41° |
| 2026-05-04 04:24 | 53.52038 | 10.20277 | 14483 ft | 386 kts | 39° |
| 2026-05-04 04:24 | 53.54297 | 10.22679 | 14507 ft | 381 kts | 20° |
| 2026-05-04 04:24 | 53.56774 | 10.24190 | 14496 ft | 378 kts | 13° |
| 2026-05-04 04:25 | 53.59292 | 10.25400 | 14487 ft | 377 kts | 11° |
| 2026-05-04 04:25 | 53.61807 | 10.26501 | 14478 ft | 376 kts | 10° |
| 2026-05-04 04:25 | 53.64334 | 10.27571 | 14476 ft | 377 kts | 10° |
| 2026-05-04 04:25 | 53.66777 | 10.29251 | 14485 ft | 384 kts | 32° |
| 2026-05-04 04:26 | 53.68685 | 10.32328 | 14524 ft | 378 kts | 47° |
| 2026-05-04 04:26 | 53.70366 | 10.35677 | 14459 ft | 379 kts | 48° |
| 2026-05-04 04:26 | 53.72037 | 10.39049 | 14257 ft | 363 kts | 48° |
| 2026-05-04 04:26 | 53.73604 | 10.42223 | 14038 ft | 346 kts | 48° |
| 2026-05-04 04:27 | 53.75108 | 10.45276 | 13805 ft | 333 kts | 48° |
| 2026-05-04 04:27 | 53.76577 | 10.48260 | 13477 ft | 333 kts | 48° |
| 2026-05-04 04:27 | 53.78042 | 10.51245 | 13035 ft | 332 kts | 48° |
| 2026-05-04 04:27 | 53.79515 | 10.54246 | 12608 ft | 330 kts | 48° |
| 2026-05-04 04:28 | 53.80961 | 10.57188 | 12137 ft | 328 kts | 46° |
| 2026-05-04 04:28 | 53.82766 | 10.59495 | 11022 ft | 324 kts | 15° |
| 2026-05-04 04:28 | 53.84869 | 10.59995 | 10091 ft | 303 kts | 345° |
| 2026-05-04 04:28 | 53.86737 | 10.58744 | 9162 ft | 284 kts | 321° |
| 2026-05-04 04:29 | 53.88206 | 10.56691 | 8191 ft | 272 kts | 300° |
| 2026-05-04 04:29 | 53.88792 | 10.53849 | 7405 ft | 251 kts | 263° |
| 2026-05-04 04:29 | 53.88271 | 10.51253 | 7576 ft | 234 kts | 241° |
| 2026-05-04 04:29 | 53.87377 | 10.48867 | 7781 ft | 233 kts | 237° |
| 2026-05-04 04:30 | 53.86453 | 10.46663 | 7448 ft | 234 kts | 236° |
| 2026-05-04 04:30 | 53.85421 | 10.44490 | 7125 ft | 237 kts | 232° |
| 2026-05-04 04:30 | 53.84356 | 10.42322 | 6786 ft | 240 kts | 233° |
| 2026-05-04 04:30 | 53.83323 | 10.40213 | 6475 ft | 230 kts | 233° |
| 2026-05-04 04:31 | 53.82335 | 10.38190 | 6067 ft | 218 kts | 233° |
| 2026-05-04 04:31 | 53.81399 | 10.36269 | 5741 ft | 207 kts | 234° |
| 2026-05-04 04:31 | 53.80486 | 10.34390 | 5455 ft | 208 kts | 234° |
| 2026-05-04 04:31 | 53.79561 | 10.32478 | 5158 ft | 209 kts | 234° |
| 2026-05-04 04:32 | 53.78656 | 10.30606 | 4859 ft | 205 kts | 234° |
| 2026-05-04 04:32 | 53.77763 | 10.28789 | 4558 ft | 200 kts | 234° |
| 2026-05-04 04:32 | 53.76898 | 10.27027 | 4262 ft | 189 kts | 234° |
| 2026-05-04 04:32 | 53.76087 | 10.25373 | 3982 ft | 178 kts | 235° |
| 2026-05-04 04:33 | 53.75310 | 10.23784 | 3754 ft | 170 kts | 235° |
| 2026-05-04 04:33 | 53.74582 | 10.22294 | 3505 ft | 165 kts | 235° |
| 2026-05-04 04:33 | 53.73844 | 10.20787 | 3286 ft | 165 kts | 235° |
| 2026-05-04 04:33 | 53.73150 | 10.19372 | 3072 ft | 149 kts | 236° |
| 2026-05-04 04:34 | 53.72520 | 10.18089 | 2943 ft | 139 kts | 236° |
| 2026-05-04 04:34 | 53.71896 | 10.16811 | 2727 ft | 142 kts | 236° |
| 2026-05-04 04:34 | 53.71259 | 10.15510 | 2501 ft | 144 kts | 236° |
| 2026-05-04 04:34 | 53.70637 | 10.14244 | 2264 ft | 136 kts | 236° |
| 2026-05-04 04:35 | 53.70046 | 10.13041 | 2055 ft | 133 kts | 236° |
| 2026-05-04 04:35 | 53.69454 | 10.11834 | 1870 ft | 132 kts | 235° |
| 2026-05-04 04:35 | 53.68866 | 10.10638 | 1690 ft | 134 kts | 235° |
| 2026-05-04 04:35 | 53.68270 | 10.09427 | 1503 ft | 133 kts | 236° |
| 2026-05-04 04:36 | 53.67701 | 10.08272 | 1314 ft | 128 kts | 236° |
| 2026-05-04 04:36 | 53.67141 | 10.07136 | 1146 ft | 124 kts | 235° |
| 2026-05-04 04:36 | 53.66579 | 10.05992 | 987 ft | 125 kts | 233° |
| 2026-05-04 04:36 | 53.66027 | 10.04873 | 819 ft | 124 kts | 234° |
| 2026-05-04 04:37 | 53.64343 | 10.01463 | 286 ft | 128 kts | 234° |
| 2026-05-04 04:37 | 53.63759 | 10.00295 | 117 ft | 125 kts | 232° |
| 2026-05-04 04:38 | 53.63254 | 9.99262 | 31 ft | 98 kts | 231° |
| 2026-05-04 04:38 | 53.62938 | 9.98625 | 36 ft | 31 kts | 229° |
| 2026-05-04 04:38 | 53.62777 | 9.98474 | 36 ft | 15 kts | 192° |
| 2026-05-04 04:38 | 53.62697 | 9.98536 | 36 ft | 14 kts | 94° |
| 2026-05-04 04:39 | 53.62724 | 9.98622 | 36 ft | 7 kts | 47° |
| 2026-05-04 04:39 | 53.62766 | 9.98702 | 36 ft | 10 kts | 49° |
| 2026-05-04 04:39 | 53.62822 | 9.98809 | 36 ft | 13 kts | 50° |
| 2026-05-04 04:39 | 53.62888 | 9.98953 | 35 ft | 17 kts | 50° |
| 2026-05-04 04:40 | 53.62974 | 9.99127 | 33 ft | 20 kts | 49° |
| 2026-05-04 04:40 | 53.63071 | 9.99311 | 30 ft | 21 kts | 58° |
| 2026-05-04 04:40 | 53.63152 | 9.99531 | 29 ft | 22 kts | 52° |
| 2026-05-04 04:40 | 53.63227 | 9.99701 | 29 ft | 14 kts | 78° |
| 2026-05-04 04:41 | 53.63163 | 9.99812 | 27 ft | 15 kts | 153° |
| 2026-05-04 04:41 | 53.63105 | 9.99888 | 26 ft | 6 kts | 68° |
| 2026-05-04 04:41 | 53.63126 | 9.99945 | 26 ft | 6 kts | 99° |
| 2026-05-04 04:41 | 53.63097 | 10.00001 | 26 ft | 3 kts | 141° |
| 2026-05-04 04:42 | 53.63094 | 10.00006 | 27 ft | 0 kts | 139° |
| 2026-05-04 04:42 | 53.63093 | 10.00006 | 27 ft | 0 kts | 139° |